createdAt,value
2018-11-07T00:02:37.126Z,100512.50
2018-11-07T00:06:02.793Z,100511.51
2018-11-07T00:09:27.487Z,100517.94
2018-11-07T00:12:52.190Z,100509.72
2018-11-07T00:16:16.875Z,100502.79
2018-11-07T00:19:41.670Z,100509.74
2018-11-07T00:23:06.380Z,100511.67
2018-11-07T00:26:31.185Z,100518.28
2018-11-07T00:29:56.836Z,100518.86
2018-11-07T00:33:21.540Z,100527.02
2018-11-07T00:36:46.278Z,100535.72
2018-11-07T00:40:11.128Z,100538.97
2018-11-07T00:43:35.830Z,100537.91
2018-11-07T00:47:00.497Z,100547.77
2018-11-07T00:50:25.175Z,100536.05
2018-11-07T00:53:49.888Z,100546.23
2018-11-07T00:57:14.536Z,100550.05
2018-11-07T01:00:39.205Z,100549.47
2018-11-07T01:04:03.903Z,100554.17
2018-11-07T01:07:28.608Z,100556.24
2018-11-07T01:10:53.290Z,100561.53
2018-11-07T01:14:18.018Z,100561.13
2018-11-07T01:17:42.744Z,100563.45
2018-11-07T01:21:07.543Z,100563.59
2018-11-07T01:24:32.216Z,100550.17
2018-11-07T01:27:56.894Z,100553.55
2018-11-07T01:31:21.600Z,100548.05
2018-11-07T01:34:46.293Z,100556.55
2018-11-07T01:38:11.016Z,100548.77
2018-11-07T01:41:35.697Z,100541.89
2018-11-07T01:45:00.388Z,100537.20
2018-11-07T01:48:25.119Z,100556.65
2018-11-07T01:51:49.782Z,100548.52
2018-11-07T01:55:14.493Z,100543.04
2018-11-07T01:58:39.215Z,100534.92
2018-11-07T02:02:03.962Z,100547.67
2018-11-07T02:05:30.191Z,100540.83
2018-11-07T02:08:54.837Z,100553.09
2018-11-07T02:12:19.546Z,100538.83
2018-11-07T02:15:44.293Z,100544.11
2018-11-07T02:19:08.957Z,100540.73
2018-11-07T02:22:33.583Z,100547.50
2018-11-07T02:25:58.272Z,100545.52
2018-11-07T02:29:22.983Z,100536.58
2018-11-07T02:32:47.660Z,100540.14
2018-11-07T02:36:12.382Z,100543.45
2018-11-07T02:39:37.097Z,100551.70
2018-11-07T02:43:01.795Z,100560.50
2018-11-07T02:46:26.457Z,100556.31
2018-11-07T02:49:51.116Z,100556.89
2018-11-07T02:53:15.846Z,100540.28
2018-11-07T02:56:40.562Z,100527.89
2018-11-07T03:00:07.190Z,100531.95
2018-11-07T03:03:31.849Z,100525.48
2018-11-07T03:06:56.495Z,100528.36
2018-11-07T03:10:21.229Z,100521.78
2018-11-07T03:13:45.898Z,100518.88
2018-11-07T03:17:10.574Z,100521.52
2018-11-07T03:20:35.289Z,100530.91
2018-11-07T03:24:00.006Z,100524.30
2018-11-07T03:27:24.725Z,100509.55
2018-11-07T03:30:49.416Z,100499.94
2018-11-07T03:34:14.203Z,100501.69
2018-11-07T03:37:38.901Z,100500.95
2018-11-07T03:41:03.667Z,100502.83
2018-11-07T03:44:28.467Z,100493.25
2018-11-07T03:47:53.121Z,100487.92
2018-11-07T03:51:17.758Z,100504.02
2018-11-07T03:54:42.436Z,100490.63
2018-11-07T03:58:07.162Z,100478.55
2018-11-07T04:01:31.873Z,100485.08
2018-11-07T04:04:56.592Z,100486.70
2018-11-07T04:08:21.254Z,100489.27
2018-11-07T04:11:45.957Z,100492.21
2018-11-07T04:15:10.765Z,100500.20
2018-11-07T04:18:35.465Z,100504.66
2018-11-07T04:22:00.136Z,100497.52
2018-11-07T04:25:24.835Z,100502.71
2018-11-07T04:28:49.533Z,100501.48
2018-11-07T04:32:14.170Z,100504.08
2018-11-07T04:35:38.801Z,100503.69
2018-11-07T04:39:03.610Z,100498.77
2018-11-07T04:42:28.302Z,100505.66
2018-11-07T04:45:52.965Z,100496.56
2018-11-07T04:49:17.681Z,100498.66
2018-11-07T04:52:42.326Z,100492.02
2018-11-07T04:56:07.028Z,100487.95
2018-11-07T04:59:31.716Z,100496.32
2018-11-07T05:02:56.435Z,100506.00
2018-11-07T05:06:21.188Z,100511.83
2018-11-07T05:09:45.965Z,100518.33
2018-11-07T05:13:10.870Z,100520.55
2018-11-07T05:16:35.766Z,100523.50
2018-11-07T05:20:00.413Z,100521.30
2018-11-07T05:23:25.111Z,100537.76
2018-11-07T05:26:49.875Z,100526.09
2018-11-07T05:30:14.548Z,100517.86
2018-11-07T05:33:39.423Z,100519.05
2018-11-07T05:37:04.068Z,100517.97
2018-11-07T05:40:28.859Z,100515.41
2018-11-07T05:43:53.599Z,100509.26
2018-11-07T05:47:18.299Z,100503.20
2018-11-07T05:50:42.959Z,100497.07
2018-11-07T05:54:07.763Z,100503.83
2018-11-07T05:57:32.376Z,100505.07
2018-11-07T06:00:57.082Z,100508.11
2018-11-07T06:04:21.821Z,100503.08
2018-11-07T06:07:46.500Z,100514.28
2018-11-07T06:11:11.180Z,100511.68
2018-11-07T06:14:35.826Z,100515.11
2018-11-07T06:18:00.496Z,100512.98
2018-11-07T06:21:25.169Z,100507.20
2018-11-07T06:24:49.898Z,100505.36
2018-11-07T06:28:14.532Z,100513.67
2018-11-07T06:31:39.212Z,100515.44
2018-11-07T06:35:03.904Z,100514.14
2018-11-07T06:38:28.599Z,100511.52
2018-11-07T06:41:53.288Z,100524.75
2018-11-07T06:45:17.973Z,100525.20
2018-11-07T06:48:42.634Z,100533.73
2018-11-07T06:52:07.334Z,100539.95
2018-11-07T06:55:31.988Z,100536.39
2018-11-07T06:58:56.875Z,100538.34
2018-11-07T07:02:21.599Z,100541.03
2018-11-07T07:05:46.355Z,100536.88
2018-11-07T07:09:11.463Z,100537.84
2018-11-07T07:12:36.166Z,100543.66
2018-11-07T07:16:00.858Z,100548.72
2018-11-07T07:19:25.562Z,100553.23
2018-11-07T07:22:50.768Z,100558.54
2018-11-07T07:26:15.529Z,100559.52
2018-11-07T07:29:40.182Z,100558.66
2018-11-07T07:33:04.989Z,100569.96
2018-11-07T07:36:29.631Z,100571.70
2018-11-07T07:39:54.386Z,100556.83
2018-11-07T07:43:19.115Z,100566.02
2018-11-07T07:46:43.804Z,100565.42
2018-11-07T07:50:10.658Z,100567.09
2018-11-07T07:53:35.351Z,100565.41
2018-11-07T07:57:00.036Z,100562.90
2018-11-07T08:00:24.730Z,100563.27
2018-11-07T08:03:49.522Z,100548.17
2018-11-07T08:07:14.249Z,100557.09
2018-11-07T08:10:39.027Z,100556.08
2018-11-07T08:14:03.817Z,100559.92
2018-11-07T08:17:28.486Z,100548.72
2018-11-07T08:20:53.189Z,100561.05
2018-11-07T08:24:17.893Z,100561.68
2018-11-07T08:27:42.757Z,100553.09
2018-11-07T08:31:07.497Z,100542.75
2018-11-07T08:34:32.368Z,100544.69
2018-11-07T08:37:57.105Z,100548.38
2018-11-07T08:41:21.840Z,100544.69
2018-11-07T08:44:46.600Z,100554.52
2018-11-07T08:48:11.363Z,100545.59
2018-11-07T08:51:36.088Z,100550.66
2018-11-07T08:55:00.892Z,100542.86
2018-11-07T08:58:25.542Z,100539.70
2018-11-07T09:01:50.306Z,100542.36
2018-11-07T09:05:15.684Z,100542.64
2018-11-07T09:08:40.411Z,100542.81
2018-11-07T09:12:05.827Z,100543.72
2018-11-07T09:15:30.560Z,100551.30
2018-11-07T09:18:55.282Z,100553.22
2018-11-07T09:22:20.001Z,100566.78
2018-11-07T09:25:44.707Z,100560.84
2018-11-07T09:29:09.523Z,100556.59
2018-11-07T09:32:34.307Z,100567.25
2018-11-07T09:35:59.098Z,100561.50
2018-11-07T09:39:23.845Z,100561.14
2018-11-07T09:42:49.124Z,100558.89
2018-11-07T09:46:13.883Z,100557.52
2018-11-07T09:49:38.615Z,100559.19
2018-11-07T09:53:03.368Z,100562.29
2018-11-07T09:56:28.201Z,100558.89
2018-11-07T09:59:53.138Z,100559.64
2018-11-07T10:03:17.919Z,100559.33
2018-11-07T10:06:42.724Z,100550.55
2018-11-07T10:10:11.713Z,100549.78
2018-11-07T10:13:36.371Z,100557.53
2018-11-07T10:17:01.199Z,100557.23
2018-11-07T10:20:25.970Z,100559.01
2018-11-07T10:23:50.712Z,100551.45
2018-11-07T10:27:15.808Z,100554.22
2018-11-07T10:30:40.249Z,100553.89
2018-11-07T10:34:05.004Z,100547.67
2018-11-07T10:37:32.465Z,100546.66
2018-11-07T10:40:54.765Z,100542.25
2018-11-07T10:44:19.598Z,100546.76
2018-11-07T10:47:45.609Z,100538.48
2018-11-07T10:51:10.361Z,100540.92
2018-11-07T10:54:35.074Z,100540.89
2018-11-07T10:58:06.511Z,100547.70
2018-11-07T11:01:36.439Z,100545.43
2018-11-07T11:05:01.362Z,100544.95
2018-11-07T11:08:26.632Z,100546.09
2018-11-07T11:11:51.441Z,100540.80
2018-11-07T11:15:16.396Z,100539.88
2018-11-07T11:18:41.173Z,100526.66
2018-11-07T11:22:06.239Z,100528.06
2018-11-07T11:25:31.041Z,100524.02
2018-11-07T11:28:55.979Z,100520.83
2018-11-07T11:32:20.821Z,100515.23
2018-11-07T11:35:45.582Z,100523.38
2018-11-07T11:39:11.974Z,100523.38
2018-11-07T11:42:36.766Z,100516.84
2018-11-07T11:46:01.565Z,100525.85
2018-11-07T11:49:26.294Z,100518.20
2018-11-07T11:52:51.137Z,100524.15
2018-11-07T11:56:15.856Z,100517.13
2018-11-07T11:59:41.096Z,100524.52
2018-11-07T12:03:05.827Z,100518.64
2018-11-07T12:06:30.611Z,100516.28
2018-11-07T12:09:55.450Z,100507.39
2018-11-07T12:13:20.347Z,100504.83
2018-11-07T12:16:45.223Z,100509.52
2018-11-07T12:20:10.672Z,100506.97
2018-11-07T12:23:35.590Z,100510.53
2018-11-07T12:27:07.745Z,100506.98
2018-11-07T12:30:32.544Z,100508.52
2018-11-07T12:33:57.611Z,100505.63
2018-11-07T12:37:22.544Z,100509.20
2018-11-07T12:40:47.517Z,100504.95
2018-11-07T12:44:12.256Z,100506.82
2018-11-07T12:47:37.451Z,100506.31
2018-11-07T12:51:02.170Z,100510.41
2018-11-07T12:54:26.887Z,100506.48
2018-11-07T12:57:51.726Z,100511.58
2018-11-07T13:01:16.382Z,100515.48
2018-11-07T13:04:41.618Z,100527.47
2018-11-07T13:08:06.487Z,100530.75
2018-11-07T13:11:31.380Z,100534.73
2018-11-07T13:14:56.057Z,100539.02
2018-11-07T13:18:20.871Z,100528.98
2018-11-07T13:21:45.651Z,100542.75
2018-11-07T13:25:11.288Z,100544.28
2018-11-07T13:28:36.005Z,100551.09
2018-11-07T13:32:00.719Z,100562.28
2018-11-07T13:35:25.370Z,100572.56
2018-11-07T13:38:50.326Z,100565.65
2018-11-07T13:42:14.799Z,100572.70
2018-11-07T13:45:39.577Z,100569.97
2018-11-07T13:49:04.566Z,100571.30
2018-11-07T13:52:29.289Z,100575.56
2018-11-07T13:55:53.989Z,100579.42
2018-11-07T13:59:18.781Z,100585.63
2018-11-07T14:02:43.676Z,100587.13
2018-11-07T14:06:08.426Z,100599.15
2018-11-07T14:09:33.153Z,100599.08
2018-11-07T14:12:57.949Z,100610.37
2018-11-07T14:16:22.676Z,100599.41
2018-11-07T14:19:47.491Z,100609.41
2018-11-07T14:23:12.195Z,100606.67
2018-11-07T14:26:36.893Z,100608.06
2018-11-07T14:30:01.699Z,100605.10
2018-11-07T14:33:27.273Z,100597.63
2018-11-07T14:36:52.084Z,100600.13
2018-11-07T14:40:16.711Z,100603.33
2018-11-07T14:43:41.453Z,100606.09
2018-11-07T14:47:06.263Z,100603.02
2018-11-07T14:50:30.925Z,100600.67
2018-11-07T14:53:55.614Z,100605.77
2018-11-07T14:57:20.246Z,100609.33
2018-11-07T15:00:44.900Z,100612.94
2018-11-07T15:04:09.619Z,100612.80
2018-11-07T15:07:34.275Z,100625.66
2018-11-07T15:10:58.986Z,100625.94
2018-11-07T15:14:23.708Z,100634.56
2018-11-07T15:17:48.483Z,100640.27
2018-11-07T15:21:13.167Z,100644.69
2018-11-07T15:24:40.894Z,100645.80
2018-11-07T15:28:05.674Z,100663.00
2018-11-07T15:31:30.347Z,100670.98
2018-11-07T15:34:54.997Z,100671.53
2018-11-07T15:38:19.772Z,100678.88
2018-11-07T15:41:44.583Z,100678.03
2018-11-07T15:45:11.675Z,100678.07
2018-11-07T15:48:36.356Z,100673.63
2018-11-07T15:52:01.109Z,100678.43
2018-11-07T15:55:25.884Z,100677.42
2018-11-07T15:58:50.597Z,100673.72
2018-11-07T16:02:15.291Z,100680.05
2018-11-07T16:05:39.980Z,100679.97
2018-11-07T16:09:06.132Z,100678.97
2018-11-07T16:12:30.884Z,100681.95
2018-11-07T16:15:56.310Z,100686.16
2018-11-07T16:19:20.992Z,100685.26
2018-11-07T16:22:46.399Z,100686.91
2018-11-07T16:26:11.076Z,100690.91
2018-11-07T16:29:35.729Z,100694.80
2018-11-07T16:33:00.420Z,100700.56
2018-11-07T16:36:25.115Z,100703.27
2018-11-07T16:39:49.789Z,100703.97
2018-11-07T16:43:14.452Z,100705.67
2018-11-07T16:46:39.165Z,100710.45
2018-11-07T16:50:04.199Z,100707.97
2018-11-07T16:53:28.842Z,100708.76
2018-11-07T16:56:53.512Z,100711.02
2018-11-07T17:00:20.413Z,100717.02
2018-11-07T17:03:45.048Z,100723.70
2018-11-07T17:07:09.779Z,100728.05
2018-11-07T17:10:34.437Z,100727.64
2018-11-07T17:13:59.119Z,100738.24
2018-11-07T17:17:23.853Z,100741.52
2018-11-07T17:20:48.620Z,100751.06
2018-11-07T17:24:13.423Z,100756.64
2018-11-07T17:27:38.336Z,100762.66
2018-11-07T17:31:03.023Z,100763.52
2018-11-07T17:34:27.710Z,100764.70
2018-11-07T17:37:52.391Z,100766.18
2018-11-07T17:41:23.211Z,100767.42
2018-11-07T17:44:47.905Z,100768.08
2018-11-07T17:48:12.676Z,100777.09
2018-11-07T17:51:37.304Z,100778.83
2018-11-07T17:55:02.058Z,100782.72
2018-11-07T17:58:26.729Z,100783.75
2018-11-07T18:01:51.495Z,100793.26
2018-11-07T18:05:16.212Z,100798.70
2018-11-07T18:08:40.885Z,100800.05
2018-11-07T18:12:05.929Z,100800.91
2018-11-07T18:15:30.615Z,100800.44
2018-11-07T18:18:55.371Z,100808.64
2018-11-07T18:22:19.984Z,100817.30
2018-11-07T18:25:44.681Z,100826.38
2018-11-07T18:29:09.468Z,100831.81
2018-11-07T18:32:34.183Z,100827.81
2018-11-07T18:35:58.822Z,100836.27
2018-11-07T18:39:23.548Z,100844.31
2018-11-07T18:42:48.239Z,100855.11
2018-11-07T18:46:19.760Z,100854.38
2018-11-07T18:49:44.469Z,100859.16
2018-11-07T18:53:09.230Z,100855.23
2018-11-07T18:56:33.970Z,100859.83
2018-11-07T18:59:58.647Z,100855.18
2018-11-07T19:03:23.410Z,100862.55
2018-11-07T19:06:48.163Z,100861.98
2018-11-07T19:10:15.665Z,100867.63
2018-11-07T19:13:40.388Z,100872.77
2018-11-07T19:17:05.148Z,100879.51
2018-11-07T19:20:29.968Z,100888.79
2018-11-07T19:23:54.868Z,100893.70
2018-11-07T19:27:19.691Z,100901.33
2018-11-07T19:30:44.323Z,100897.34
2018-11-07T19:34:09.025Z,100896.91
2018-11-07T19:37:34.120Z,100903.56
2018-11-07T19:40:59.323Z,100909.94
2018-11-07T19:44:24.850Z,100912.83
2018-11-07T19:47:50.118Z,100919.78
2018-11-07T19:51:16.265Z,100914.36
2018-11-07T19:54:41.653Z,100925.81
2018-11-07T19:58:07.798Z,100939.41
2018-11-07T20:01:33.743Z,100938.16
2018-11-07T20:04:58.717Z,100947.04
2018-11-07T20:08:24.037Z,100955.70
2018-11-07T20:11:50.602Z,100956.55
2018-11-07T20:15:18.114Z,100952.84
2018-11-07T20:18:44.722Z,100956.93
2018-11-07T20:22:11.432Z,100961.47
2018-11-07T20:25:37.479Z,100966.53
2018-11-07T20:29:03.335Z,100958.28
2018-11-07T20:32:28.873Z,100962.48
2018-11-07T20:35:54.197Z,100971.22
2018-11-07T20:39:19.208Z,100968.39
2018-11-07T20:42:45.143Z,100973.81
2018-11-07T20:46:11.013Z,100970.97
2018-11-07T20:49:36.654Z,100969.38
2018-11-07T20:53:02.153Z,100978.12
2018-11-07T20:56:27.743Z,100984.94
2018-11-07T21:00:55.728Z,100989.12
2018-11-07T21:04:21.954Z,100997.39
2018-11-07T21:07:47.148Z,100998.61
2018-11-07T21:11:12.345Z,100999.73
2018-11-07T21:14:38.909Z,101006.87
2018-11-07T21:18:05.469Z,101018.83
2018-11-07T21:21:30.875Z,101020.33
2018-11-07T21:24:55.544Z,101026.63
2018-11-07T21:28:20.354Z,101038.70
2018-11-07T21:31:45.042Z,101040.05
2018-11-07T21:35:09.844Z,101037.98
2018-11-07T21:38:34.464Z,101035.62
2018-11-07T21:41:59.251Z,101039.58
2018-11-07T21:45:24.078Z,101044.88
2018-11-07T21:48:48.720Z,101050.04
2018-11-07T21:52:13.338Z,101056.32
2018-11-07T21:55:38.026Z,101051.99
2018-11-07T21:59:02.659Z,101054.71
2018-11-07T22:02:27.310Z,101056.63
2018-11-07T22:05:51.913Z,101067.64
2018-11-07T22:09:16.578Z,101076.70
2018-11-07T22:12:41.376Z,101080.11
2018-11-07T22:16:06.254Z,101086.36
2018-11-07T22:19:31.075Z,101076.67
2018-11-07T22:22:55.766Z,101072.55
2018-11-07T22:26:20.432Z,101077.38
2018-11-07T22:29:45.092Z,101081.04
2018-11-07T22:33:09.762Z,101092.16
2018-11-07T22:36:34.423Z,101094.66
2018-11-07T22:39:59.112Z,101097.44
2018-11-07T22:43:23.810Z,101105.78
2018-11-07T22:46:48.468Z,101107.78
2018-11-07T22:50:14.342Z,101121.73
2018-11-07T22:53:39.043Z,101120.58
2018-11-07T22:57:03.674Z,101120.91
2018-11-07T23:00:33.750Z,101118.14
2018-11-07T23:03:58.487Z,101108.28
2018-11-07T23:07:23.149Z,101114.94
2018-11-07T23:10:47.887Z,101118.77
2018-11-07T23:14:13.816Z,101121.61
2018-11-07T23:17:38.459Z,101115.84
2018-11-07T23:21:03.124Z,101121.77
2018-11-07T23:24:27.811Z,101123.12
2018-11-07T23:27:52.507Z,101127.03
2018-11-07T23:31:17.192Z,101137.17
2018-11-07T23:34:41.892Z,101145.89
2018-11-07T23:38:06.730Z,101154.44
2018-11-07T23:41:31.393Z,101162.09
2018-11-07T23:44:56.105Z,101166.20
2018-11-07T23:48:20.806Z,101175.41
2018-11-07T23:51:50.215Z,101180.81
2018-11-07T23:55:15.054Z,101187.47
2018-11-07T23:58:39.771Z,101194.48
